createdAt,value
2023-08-31T00:02:02.696Z,70.30
2023-08-31T00:04:29.545Z,70.50
2023-08-31T00:06:57.732Z,70.40
2023-08-31T00:09:25.643Z,70.50
2023-08-31T00:11:52.642Z,70.40
2023-08-31T00:14:19.526Z,70.40
2023-08-31T00:16:49.052Z,70.90
2023-08-31T00:19:16.362Z,70.70
2023-08-31T00:21:43.882Z,70.70
2023-08-31T00:24:12.177Z,70.90
2023-08-31T00:26:43.442Z,70.80
2023-08-31T00:29:12.032Z,70.70
2023-08-31T00:31:39.151Z,70.90
2023-08-31T00:34:08.109Z,70.80
2023-08-31T00:36:35.346Z,71.00
2023-08-31T00:39:11.763Z,70.90
2023-08-31T00:41:38.842Z,70.80
2023-08-31T00:44:08.106Z,70.50
2023-08-31T00:46:36.183Z,70.80
2023-08-31T00:49:05.264Z,70.90
2023-08-31T00:51:32.366Z,70.70
2023-08-31T00:54:00.287Z,71.00
2023-08-31T00:56:27.772Z,71.10
2023-08-31T00:58:55.754Z,71.30
2023-08-31T01:01:30.148Z,71.00
2023-08-31T01:04:15.937Z,70.90
2023-08-31T01:07:21.836Z,70.90
2023-08-31T01:10:06.989Z,71.10
2023-08-31T01:12:38.401Z,71.20
2023-08-31T01:15:08.835Z,71.70
2023-08-31T01:17:40.902Z,71.90
2023-08-31T01:20:09.683Z,72.00
2023-08-31T01:22:44.517Z,72.30
2023-08-31T01:25:11.888Z,71.90
2023-08-31T01:27:41.650Z,72.40
2023-08-31T01:30:09.540Z,72.50
2023-08-31T01:32:38.463Z,72.40
2023-08-31T01:35:06.975Z,72.40
2023-08-31T01:37:37.060Z,72.60
2023-08-31T01:40:12.061Z,72.70
2023-08-31T01:42:40.038Z,72.60
2023-08-31T01:45:08.311Z,72.70
2023-08-31T01:47:35.309Z,72.50
2023-08-31T01:50:03.003Z,72.20
2023-08-31T01:52:29.861Z,72.60
2023-08-31T01:54:56.806Z,72.70
2023-08-31T01:57:23.584Z,72.50
2023-08-31T01:59:50.464Z,72.30
2023-08-31T02:02:17.494Z,72.40
2023-08-31T02:04:44.936Z,72.50
2023-08-31T02:07:11.912Z,72.50
2023-08-31T02:09:38.809Z,73.00
2023-08-31T02:12:05.810Z,73.20
2023-08-31T02:14:32.814Z,73.00
2023-08-31T02:16:59.720Z,73.00
2023-08-31T02:19:26.836Z,73.20
2023-08-31T02:21:53.799Z,73.20
2023-08-31T02:24:21.144Z,72.70
2023-08-31T02:26:49.779Z,73.30
2023-08-31T02:29:16.703Z,73.00
2023-08-31T02:31:43.517Z,73.30
2023-08-31T02:34:10.394Z,73.00
2023-08-31T02:36:37.548Z,73.10
2023-08-31T02:39:04.893Z,73.10
2023-08-31T02:41:31.732Z,73.10
2023-08-31T02:43:58.787Z,72.50
2023-08-31T02:46:25.682Z,72.80
2023-08-31T02:48:52.742Z,73.00
2023-08-31T02:51:19.665Z,72.70
2023-08-31T02:53:46.765Z,72.30
2023-08-31T02:56:13.658Z,72.70
2023-08-31T02:58:40.890Z,72.30
2023-08-31T03:01:15.140Z,72.70
2023-08-31T03:03:44.098Z,72.80
2023-08-31T03:06:11.304Z,73.10
2023-08-31T03:08:39.059Z,73.00
2023-08-31T03:11:06.527Z,73.10
2023-08-31T03:13:34.748Z,73.10
2023-08-31T03:16:02.746Z,72.90
2023-08-31T03:18:30.327Z,72.80
2023-08-31T03:20:57.397Z,72.80
2023-08-31T03:23:24.378Z,73.20
2023-08-31T03:25:51.318Z,73.30
2023-08-31T03:28:18.228Z,72.90
2023-08-31T03:30:47.906Z,72.90
2023-08-31T03:33:14.966Z,72.80
2023-08-31T03:35:42.132Z,72.80
2023-08-31T03:38:08.973Z,72.70
2023-08-31T03:40:35.838Z,73.00
2023-08-31T03:43:02.691Z,72.50
2023-08-31T03:45:29.576Z,72.80
2023-08-31T03:47:56.651Z,74.20
2023-08-31T03:50:23.714Z,74.50
2023-08-31T03:52:50.601Z,74.60
2023-08-31T03:55:17.476Z,74.70
2023-08-31T03:57:44.579Z,74.80
2023-08-31T04:00:13.864Z,74.70
2023-08-31T04:02:42.972Z,74.90
2023-08-31T04:05:10.387Z,74.70
2023-08-31T04:07:37.332Z,74.90
2023-08-31T04:10:05.063Z,75.10
2023-08-31T04:12:31.979Z,75.00
2023-08-31T04:14:58.963Z,75.20
2023-08-31T04:17:25.906Z,75.00
2023-08-31T04:19:53.205Z,75.20
2023-08-31T04:22:20.021Z,75.30
2023-08-31T04:24:47.333Z,75.10
2023-08-31T04:27:14.291Z,74.70
2023-08-31T04:29:41.281Z,75.00
2023-08-31T04:32:09.715Z,74.80
2023-08-31T04:34:36.989Z,75.00
2023-08-31T04:37:04.055Z,74.90
2023-08-31T04:39:30.967Z,74.80
2023-08-31T04:41:57.868Z,74.40
2023-08-31T04:44:24.726Z,74.40
2023-08-31T04:46:51.768Z,74.40
2023-08-31T04:49:19.361Z,74.00
2023-08-31T04:51:47.371Z,74.30
2023-08-31T04:54:15.274Z,73.70
2023-08-31T04:56:42.233Z,73.60
2023-08-31T04:59:09.130Z,73.30
2023-08-31T05:01:36.105Z,73.50
2023-08-31T05:04:04.287Z,73.30
2023-08-31T05:06:31.245Z,73.00
2023-08-31T05:08:58.113Z,72.60
2023-08-31T05:11:25.024Z,72.80
2023-08-31T05:13:52.000Z,72.60
2023-08-31T05:16:18.922Z,72.20
2023-08-31T05:18:45.768Z,72.30
2023-08-31T05:21:12.605Z,71.80
2023-08-31T05:23:41.947Z,72.00
2023-08-31T05:26:09.071Z,71.60
2023-08-31T05:28:35.925Z,72.00
2023-08-31T05:31:06.610Z,70.60
2023-08-31T05:33:35.438Z,70.20
2023-08-31T05:36:06.661Z,69.90
2023-08-31T05:38:33.716Z,70.00
2023-08-31T05:41:08.224Z,69.90
2023-08-31T05:43:36.736Z,69.80
2023-08-31T05:46:04.056Z,69.30
2023-08-31T05:48:31.573Z,69.50
2023-08-31T05:50:58.522Z,69.30
2023-08-31T05:53:25.527Z,69.30
2023-08-31T05:55:52.324Z,69.10
2023-08-31T05:58:19.190Z,69.00
2023-08-31T06:00:46.027Z,68.90
2023-08-31T06:03:13.197Z,68.60
2023-08-31T06:05:40.420Z,68.70
2023-08-31T06:08:07.433Z,68.40
2023-08-31T06:10:34.348Z,68.10
2023-08-31T06:13:01.242Z,68.20
2023-08-31T06:15:29.023Z,68.20
2023-08-31T06:17:57.058Z,67.80
2023-08-31T06:20:25.061Z,67.90
2023-08-31T06:22:52.018Z,67.50
2023-08-31T06:25:19.745Z,67.30
2023-08-31T06:27:47.232Z,67.30
2023-08-31T06:30:17.272Z,67.20
2023-08-31T06:32:48.980Z,67.20
2023-08-31T06:35:19.423Z,66.80
2023-08-31T06:37:47.616Z,66.90
2023-08-31T06:40:14.486Z,67.10
2023-08-31T06:42:41.364Z,66.60
2023-08-31T06:45:10.030Z,66.80
2023-08-31T06:47:37.243Z,67.00
2023-08-31T06:50:06.841Z,66.90
2023-08-31T06:52:35.075Z,66.50
2023-08-31T06:55:04.092Z,66.50
2023-08-31T06:57:31.018Z,66.50
2023-08-31T06:59:57.940Z,66.20
2023-08-31T07:02:27.748Z,66.60
2023-08-31T07:04:54.829Z,66.20
2023-08-31T07:07:21.780Z,66.40
2023-08-31T07:09:52.408Z,65.80
2023-08-31T07:12:19.334Z,66.50
2023-08-31T07:14:46.281Z,65.20
2023-08-31T07:17:13.194Z,65.40
2023-08-31T07:19:40.096Z,65.00
2023-08-31T07:22:07.708Z,64.70
2023-08-31T07:24:36.168Z,63.20
2023-08-31T07:27:06.333Z,62.10
2023-08-31T07:29:33.311Z,61.90
2023-08-31T07:32:00.214Z,61.10
2023-08-31T07:34:27.948Z,60.30
2023-08-31T07:36:54.853Z,60.00
2023-08-31T07:39:21.754Z,60.00
2023-08-31T07:41:50.228Z,58.90
2023-08-31T07:44:17.752Z,58.50
2023-08-31T07:46:44.754Z,58.30
2023-08-31T07:49:11.758Z,57.70
2023-08-31T07:51:38.764Z,57.00
2023-08-31T07:54:05.835Z,56.60
2023-08-31T07:56:32.734Z,56.00
2023-08-31T07:58:59.722Z,55.70
2023-08-31T08:01:26.731Z,56.00
2023-08-31T08:03:53.873Z,55.60
2023-08-31T08:06:20.773Z,55.40
2023-08-31T08:08:47.671Z,55.70
2023-08-31T08:11:14.532Z,55.90
2023-08-31T08:13:41.419Z,56.20
2023-08-31T08:16:10.170Z,56.30
2023-08-31T08:18:37.209Z,55.80
2023-08-31T08:21:04.697Z,56.70
2023-08-31T08:23:31.972Z,55.60
2023-08-31T08:26:01.769Z,56.10
2023-08-31T08:28:29.407Z,56.20
2023-08-31T08:30:56.573Z,57.00
2023-08-31T08:33:24.063Z,57.40
2023-08-31T08:35:50.941Z,56.70
2023-08-31T08:38:17.890Z,56.70
2023-08-31T08:40:44.931Z,56.50
2023-08-31T08:43:13.103Z,56.30
2023-08-31T08:45:42.752Z,56.00
2023-08-31T08:48:10.675Z,55.60
2023-08-31T08:50:38.726Z,55.10
2023-08-31T08:53:06.670Z,55.10
2023-08-31T08:55:34.504Z,54.70
2023-08-31T08:58:02.022Z,54.80
2023-08-31T09:00:29.317Z,53.90
2023-08-31T09:02:57.400Z,54.20
2023-08-31T09:05:24.517Z,53.90
2023-08-31T09:08:27.037Z,52.80
2023-08-31T09:10:56.481Z,52.20
2023-08-31T09:13:30.121Z,51.80
2023-08-31T09:15:58.513Z,51.50
2023-08-31T09:18:30.924Z,52.10
2023-08-31T09:20:58.286Z,51.10
2023-08-31T09:23:25.625Z,50.50
2023-08-31T09:25:54.792Z,50.40
2023-08-31T09:28:31.460Z,50.70
2023-08-31T09:31:09.629Z,51.00
2023-08-31T09:33:38.106Z,50.70
2023-08-31T09:36:08.710Z,49.70
2023-08-31T09:38:44.657Z,49.20
2023-08-31T09:41:18.985Z,49.40
2023-08-31T09:43:46.081Z,49.40
2023-08-31T09:46:14.396Z,49.10
2023-08-31T09:48:42.745Z,48.40
2023-08-31T09:51:12.392Z,48.60
2023-08-31T09:53:40.182Z,48.70
2023-08-31T09:56:07.999Z,47.30
2023-08-31T09:58:35.801Z,46.20
2023-08-31T10:01:08.117Z,46.60
2023-08-31T10:03:41.220Z,46.80
2023-08-31T10:06:11.624Z,46.50
2023-08-31T10:08:39.259Z,47.40
2023-08-31T10:11:07.544Z,47.30
2023-08-31T10:13:37.760Z,47.90
2023-08-31T10:16:08.233Z,46.80
2023-08-31T10:18:38.407Z,47.20
2023-08-31T10:21:05.549Z,47.50
2023-08-31T10:23:33.322Z,47.20
2023-08-31T10:26:00.800Z,46.60
2023-08-31T10:28:29.473Z,47.20
2023-08-31T10:31:19.820Z,47.00
2023-08-31T10:33:55.874Z,46.90
2023-08-31T10:36:22.893Z,45.90
2023-08-31T10:38:58.589Z,46.20
2023-08-31T10:41:26.996Z,46.50
2023-08-31T10:43:54.915Z,46.90
2023-08-31T10:46:42.997Z,45.30
2023-08-31T10:49:13.113Z,45.80
2023-08-31T10:51:45.293Z,45.00
2023-08-31T10:54:26.986Z,44.70
2023-08-31T10:57:14.641Z,44.20
2023-08-31T10:59:56.166Z,44.30
2023-08-31T11:02:41.732Z,43.00
2023-08-31T11:05:13.451Z,43.50
2023-08-31T11:07:42.000Z,43.50
2023-08-31T11:10:13.360Z,44.10
2023-08-31T11:12:41.596Z,44.50
2023-08-31T11:15:09.443Z,44.40
2023-08-31T11:17:41.410Z,44.20
2023-08-31T11:20:10.347Z,44.10
2023-08-31T11:22:42.810Z,43.60
2023-08-31T11:25:14.248Z,43.70
2023-08-31T11:27:41.495Z,43.50
2023-08-31T11:30:16.350Z,43.60
2023-08-31T11:32:50.531Z,43.70
2023-08-31T11:35:18.514Z,43.30
2023-08-31T11:37:46.593Z,41.70
2023-08-31T11:40:17.963Z,41.70
2023-08-31T11:42:45.237Z,41.90
2023-08-31T11:45:14.866Z,41.80
2023-08-31T11:47:44.591Z,41.70
2023-08-31T11:50:13.302Z,42.00
2023-08-31T11:52:40.364Z,41.50
2023-08-31T11:55:15.444Z,41.40
2023-08-31T11:57:52.262Z,41.70
2023-08-31T12:00:21.312Z,41.80
2023-08-31T12:03:02.209Z,42.00
2023-08-31T12:05:31.339Z,41.90
2023-08-31T12:07:58.381Z,40.80
2023-08-31T12:10:27.013Z,40.60
2023-08-31T12:12:54.466Z,40.60
2023-08-31T12:15:24.238Z,41.20
2023-08-31T12:17:56.095Z,40.70
2023-08-31T12:20:29.353Z,40.70
2023-08-31T12:22:56.225Z,39.60
2023-08-31T12:25:24.193Z,38.10
2023-08-31T12:27:51.341Z,38.90
2023-08-31T12:30:18.364Z,38.70
2023-08-31T12:32:45.318Z,38.50
2023-08-31T12:35:12.902Z,38.00
2023-08-31T12:37:40.061Z,38.00
2023-08-31T12:40:10.536Z,37.50
2023-08-31T12:42:37.720Z,37.90
2023-08-31T12:45:06.900Z,36.70
2023-08-31T12:47:33.971Z,36.30
2023-08-31T12:50:00.916Z,36.70
2023-08-31T12:52:27.848Z,36.70
2023-08-31T12:54:54.689Z,35.80
2023-08-31T12:57:21.576Z,35.40
2023-08-31T12:59:49.355Z,35.20
2023-08-31T13:02:16.297Z,36.20
2023-08-31T13:04:43.230Z,35.80
2023-08-31T13:07:10.370Z,36.70
2023-08-31T13:09:37.360Z,36.70
2023-08-31T13:12:04.982Z,37.50
2023-08-31T13:14:31.801Z,37.10
2023-08-31T13:16:58.770Z,37.40
2023-08-31T13:19:26.602Z,37.30
2023-08-31T13:21:55.031Z,36.90
2023-08-31T13:24:22.670Z,37.10
2023-08-31T13:26:50.033Z,37.10
2023-08-31T13:29:17.802Z,37.10
2023-08-31T13:31:44.991Z,36.70
2023-08-31T13:34:12.340Z,36.90
2023-08-31T13:36:39.212Z,37.10
2023-08-31T13:39:06.061Z,36.70
2023-08-31T13:41:32.937Z,37.00
2023-08-31T13:43:59.810Z,37.40
2023-08-31T13:46:26.743Z,37.40
2023-08-31T13:48:53.754Z,36.90
2023-08-31T13:51:20.633Z,36.70
2023-08-31T13:53:48.240Z,36.70
2023-08-31T13:56:15.230Z,36.90
2023-08-31T13:58:42.329Z,37.40
2023-08-31T14:01:09.647Z,37.50
2023-08-31T14:03:36.729Z,36.70
2023-08-31T14:06:07.186Z,37.10
2023-08-31T14:08:34.321Z,36.60
2023-08-31T14:11:02.667Z,36.60
2023-08-31T14:13:29.581Z,36.70
2023-08-31T14:15:56.452Z,36.50
2023-08-31T14:18:26.305Z,36.50
2023-08-31T14:20:53.199Z,37.10
2023-08-31T14:23:20.036Z,37.00
2023-08-31T14:25:46.920Z,36.80
2023-08-31T14:28:14.087Z,36.30
2023-08-31T14:30:41.129Z,35.90
2023-08-31T14:33:08.104Z,36.10
2023-08-31T14:35:39.171Z,36.40
2023-08-31T14:38:06.762Z,36.20
2023-08-31T14:40:35.384Z,36.70
2023-08-31T14:43:02.290Z,37.30
2023-08-31T14:45:29.151Z,37.30
2023-08-31T14:47:56.141Z,37.50
2023-08-31T14:50:23.014Z,37.50
2023-08-31T14:52:50.740Z,37.50
2023-08-31T14:55:17.723Z,37.50
2023-08-31T14:57:44.582Z,37.60
2023-08-31T15:00:12.132Z,38.10
2023-08-31T15:02:39.372Z,38.10
2023-08-31T15:05:06.868Z,38.30
2023-08-31T15:07:33.755Z,38.40
2023-08-31T15:10:01.248Z,38.50
2023-08-31T15:12:28.222Z,38.50
2023-08-31T15:14:55.158Z,38.40
2023-08-31T15:17:22.068Z,39.20
2023-08-31T15:19:52.685Z,39.20
2023-08-31T15:22:19.635Z,39.60
2023-08-31T15:24:47.525Z,39.80
2023-08-31T15:27:14.326Z,40.20
2023-08-31T15:29:41.242Z,40.20
2023-08-31T15:32:08.932Z,40.40
2023-08-31T15:34:35.855Z,40.60
2023-08-31T15:37:04.085Z,40.80
2023-08-31T15:39:31.773Z,41.00
2023-08-31T15:41:58.713Z,41.50
2023-08-31T15:44:25.865Z,41.30
2023-08-31T15:46:52.782Z,41.10
2023-08-31T15:49:19.788Z,41.00
2023-08-31T15:51:46.727Z,41.30
2023-08-31T15:54:13.656Z,40.60
2023-08-31T15:56:40.552Z,40.60
2023-08-31T15:59:07.397Z,40.80
2023-08-31T16:01:34.285Z,40.80
2023-08-31T16:04:01.365Z,40.90
2023-08-31T16:06:28.230Z,41.00
2023-08-31T16:08:55.140Z,41.00
2023-08-31T16:11:25.290Z,41.50
2023-08-31T16:13:52.295Z,41.70
2023-08-31T16:16:24.534Z,41.60
2023-08-31T16:18:51.933Z,41.40
2023-08-31T16:21:19.234Z,41.50
2023-08-31T16:23:46.318Z,41.70
2023-08-31T16:26:13.168Z,42.20
2023-08-31T16:28:40.123Z,42.00
2023-08-31T16:31:07.127Z,42.40
2023-08-31T16:33:34.035Z,42.30
2023-08-31T16:36:02.345Z,42.10
2023-08-31T16:38:29.183Z,42.30
2023-08-31T16:40:56.749Z,42.30
2023-08-31T16:43:25.254Z,42.50
2023-08-31T16:45:52.651Z,42.70
2023-08-31T16:48:19.594Z,42.70
2023-08-31T16:50:46.395Z,42.90
2023-08-31T16:53:13.287Z,43.10
2023-08-31T16:55:40.605Z,43.10
2023-08-31T16:58:07.504Z,42.80
2023-08-31T17:00:34.976Z,43.00
2023-08-31T17:03:01.937Z,43.30
2023-08-31T17:05:31.725Z,43.90
2023-08-31T17:07:58.696Z,43.70
2023-08-31T17:10:25.651Z,43.40
2023-08-31T17:12:53.572Z,43.10
2023-08-31T17:15:20.458Z,43.50
2023-08-31T17:17:49.247Z,42.50
2023-08-31T17:20:17.598Z,43.50
2023-08-31T17:22:45.466Z,43.40
2023-08-31T17:25:13.360Z,44.00
2023-08-31T17:27:40.814Z,44.20
2023-08-31T17:30:08.286Z,43.80
2023-08-31T17:32:39.162Z,43.40
2023-08-31T17:35:07.529Z,44.10
2023-08-31T17:37:35.210Z,44.00
2023-08-31T17:40:08.714Z,44.00
2023-08-31T17:42:37.743Z,44.00
2023-08-31T17:45:05.402Z,44.20
2023-08-31T17:47:32.223Z,44.50
2023-08-31T17:49:59.170Z,44.40
2023-08-31T17:52:26.254Z,45.00
2023-08-31T17:54:53.095Z,45.20
2023-08-31T17:57:19.992Z,45.70
2023-08-31T17:59:50.297Z,45.80
2023-08-31T18:02:17.901Z,46.20
2023-08-31T18:04:44.859Z,46.70
2023-08-31T18:07:11.763Z,47.10
2023-08-31T18:09:38.640Z,47.30
2023-08-31T18:12:07.121Z,47.40
2023-08-31T18:14:35.223Z,48.10
2023-08-31T18:17:03.760Z,47.90
2023-08-31T18:19:36.019Z,48.70
2023-08-31T18:22:04.837Z,48.80
2023-08-31T18:24:31.704Z,48.80
2023-08-31T18:26:58.665Z,49.00
2023-08-31T18:29:25.549Z,49.30
2023-08-31T18:31:52.498Z,49.60
2023-08-31T18:34:19.310Z,50.20
2023-08-31T18:36:46.194Z,50.30
2023-08-31T18:39:13.104Z,50.90
2023-08-31T18:41:40.415Z,51.30
2023-08-31T18:44:13.543Z,51.60
2023-08-31T18:46:40.532Z,52.00
2023-08-31T18:49:07.478Z,52.20
2023-08-31T18:51:38.592Z,52.40
2023-08-31T18:54:09.751Z,52.70
2023-08-31T18:56:40.596Z,53.00
2023-08-31T18:59:09.293Z,53.30
2023-08-31T19:01:36.271Z,53.20
2023-08-31T19:04:04.480Z,53.60
2023-08-31T19:06:34.058Z,53.90
2023-08-31T19:09:02.159Z,54.10
2023-08-31T19:11:29.826Z,54.20
2023-08-31T19:13:57.932Z,54.70
2023-08-31T19:16:25.396Z,54.40
2023-08-31T19:18:54.848Z,54.90
2023-08-31T19:21:22.344Z,55.20
2023-08-31T19:23:49.366Z,55.60
2023-08-31T19:26:16.329Z,55.30
2023-08-31T19:28:43.279Z,55.70
2023-08-31T19:31:11.075Z,55.60
2023-08-31T19:33:38.180Z,55.90
2023-08-31T19:36:05.409Z,56.10
2023-08-31T19:38:32.255Z,56.40
2023-08-31T19:40:59.176Z,56.30
2023-08-31T19:43:26.125Z,56.60
2023-08-31T19:45:53.132Z,56.60
2023-08-31T19:48:20.423Z,57.10
2023-08-31T19:50:49.400Z,57.00
2023-08-31T19:53:16.368Z,56.90
2023-08-31T19:55:44.009Z,57.10
2023-08-31T19:58:11.316Z,57.00
2023-08-31T20:00:38.380Z,57.40
2023-08-31T20:03:05.402Z,57.40
2023-08-31T20:05:32.380Z,57.60
2023-08-31T20:07:59.304Z,57.70
2023-08-31T20:10:26.247Z,57.90
2023-08-31T20:12:53.144Z,58.20
2023-08-31T20:15:24.952Z,57.70
2023-08-31T20:17:53.107Z,58.00
2023-08-31T20:20:22.552Z,58.20
2023-08-31T20:22:50.351Z,58.20
2023-08-31T20:25:19.866Z,58.60
2023-08-31T20:27:48.019Z,58.30
2023-08-31T20:30:14.978Z,58.80
2023-08-31T20:32:42.159Z,58.70
2023-08-31T20:35:11.587Z,58.90
2023-08-31T20:37:38.757Z,60.20
2023-08-31T20:40:09.886Z,60.50
2023-08-31T20:42:37.150Z,60.60
2023-08-31T20:45:04.549Z,60.60
2023-08-31T20:47:31.847Z,60.60
2023-08-31T20:49:58.896Z,60.60
2023-08-31T20:52:25.819Z,60.80
2023-08-31T20:54:56.047Z,60.90
2023-08-31T20:57:23.007Z,60.80
2023-08-31T20:59:50.013Z,61.10
2023-08-31T21:02:16.963Z,61.20
2023-08-31T21:04:43.895Z,60.90
2023-08-31T21:07:10.781Z,61.20
2023-08-31T21:09:37.604Z,61.30
2023-08-31T21:12:04.642Z,61.60
2023-08-31T21:14:31.580Z,61.60
2023-08-31T21:16:58.549Z,61.60
2023-08-31T21:19:26.202Z,61.80
2023-08-31T21:21:54.443Z,61.90
2023-08-31T21:24:21.525Z,62.10
2023-08-31T21:26:48.425Z,62.10
2023-08-31T21:29:15.308Z,62.40
2023-08-31T21:31:42.276Z,62.00
2023-08-31T21:34:09.252Z,62.60
2023-08-31T21:36:36.126Z,62.50
2023-08-31T21:39:03.846Z,62.50
2023-08-31T21:41:30.821Z,62.60
2023-08-31T21:43:57.812Z,62.50
2023-08-31T21:46:27.463Z,62.50
2023-08-31T21:48:54.430Z,62.90
2023-08-31T21:51:22.798Z,62.80
2023-08-31T21:53:52.649Z,62.90
2023-08-31T21:56:21.331Z,63.00
2023-08-31T21:58:48.175Z,63.60
2023-08-31T22:01:14.990Z,63.10
2023-08-31T22:03:43.132Z,63.70
2023-08-31T22:06:10.702Z,63.70
2023-08-31T22:08:38.066Z,63.50
2023-08-31T22:11:06.876Z,63.70
2023-08-31T22:13:35.615Z,63.80
2023-08-31T22:16:12.200Z,64.00
2023-08-31T22:18:50.185Z,63.70
2023-08-31T22:21:18.314Z,64.10
2023-08-31T22:23:45.292Z,64.30
2023-08-31T22:26:12.205Z,64.50
2023-08-31T22:28:39.236Z,64.70
2023-08-31T22:31:06.198Z,64.30
2023-08-31T22:33:33.242Z,64.70
2023-08-31T22:36:03.970Z,64.60
2023-08-31T22:38:30.861Z,64.80
2023-08-31T22:40:57.714Z,64.90
2023-08-31T22:43:24.606Z,64.80
2023-08-31T22:45:58.764Z,65.30
2023-08-31T22:48:25.923Z,65.10
2023-08-31T22:51:05.261Z,65.60
2023-08-31T22:53:33.250Z,64.80
2023-08-31T22:56:01.803Z,65.40
2023-08-31T22:58:29.240Z,65.70
2023-08-31T23:00:56.492Z,65.70
2023-08-31T23:03:23.561Z,66.00
2023-08-31T23:05:50.496Z,66.00
2023-08-31T23:08:17.655Z,66.20
2023-08-31T23:10:44.563Z,65.80
2023-08-31T23:13:11.392Z,66.30
2023-08-31T23:15:39.207Z,66.10
2023-08-31T23:18:06.379Z,66.30
2023-08-31T23:20:33.464Z,66.70
2023-08-31T23:23:00.501Z,67.00
2023-08-31T23:25:27.493Z,66.80
2023-08-31T23:27:54.389Z,66.60
2023-08-31T23:30:21.560Z,67.00
2023-08-31T23:32:48.438Z,66.90
2023-08-31T23:35:15.580Z,67.00
2023-08-31T23:37:42.708Z,67.00
2023-08-31T23:40:12.245Z,67.00
2023-08-31T23:42:41.188Z,66.90
2023-08-31T23:45:09.903Z,67.20
2023-08-31T23:47:36.824Z,66.70
2023-08-31T23:50:03.938Z,66.80
2023-08-31T23:52:30.765Z,67.20
2023-08-31T23:54:58.115Z,67.00
2023-08-31T23:57:25.032Z,67.00
2023-08-31T23:59:52.801Z,67.40
